Hauptseite
METAR-TAF:

METAR-TAF

Flughäfen :

Bahrain, Bahrain

Flughafen Bahrain

Breite: 26-16N, Länge: 050-39E, Höhe: 2 m

Beobachtung

Neuester Wetterbericht von vor 18 Minuten, um 23:30 UTC
Wind 9 kt aus Südost
Temperatur 34°C
Luftfeuchtigkeit 80%
Luftdruck 1000 hPa
Sichtweite: 5000 m
Himmel klar
trockener Dunst

METAR: OBBI 162330Z 13009KT 5000 HZ SKC 34/30 Q1000 NOSIG

Zeit: 02:48 (23:48 UTC)

Prognose

Neuester Wetterbericht von vor 48 Minuten, um 23:00 UTC
Gültige Prognose vom 17 um 00 UTC bis 18 um 06 UTC
Wind 10 kt aus Ost/Südost
Sichtweite: 7000 m
Wahrscheinlichkeit 30% :
Zeitweise
vom 17 um 01 UTC bis 17 um 04 UTC
Sichtweite: 4000 m
trockener Dunst
Wahrscheinlichkeit 30% :
Zeitweise
vom 17 um 22 UTC bis 18 um 04 UTC
Sichtweite: 4000 m
trockener Dunst

TAF: OBBI 162300Z 1700/1806 11010KT 7000 NSC PROB30 TEMPO 1701/1704 4000 HZ PROB30 TEMPO 1722/1804 4000 HZ

Wetterbeobachtungen und Prognosen von mehr als 4000 Flughäfen (METAR und TAF Bericht).

Die verfügbaren Stationen werden durch gelbe und rote Markierungen auf der Karte dargestellt.

Führen Sie die Maus auf sie, um den Namen der Station zu sehen.

Darauf klicken, um die Beobachtung von Wetterbeobachtungen und Prognosen zu sehen.

Um die Karte zu ändern : klicken Sie auf den grünen Tasten mit einem schwarzen Kreuz Zum Vergrößern, auf den grünen Button mit einem Gedankenstrich zu verkleinern, oder auf die grünen Pfeile für benachbarte Karten.


METAR-TAF: